createdAt,value
2018-11-14T00:00:01.039Z,9.19
2018-11-14T00:01:01.037Z,9.18
2018-11-14T00:02:01.030Z,9.14
2018-11-14T00:03:01.021Z,9.25
2018-11-14T00:04:01.012Z,9.19
2018-11-14T00:05:01.008Z,9.18
2018-11-14T00:06:01.001Z,9.16
2018-11-14T00:07:00.993Z,9.21
2018-11-14T00:08:00.985Z,9.19
2018-11-14T00:09:00.981Z,9.16
2018-11-14T00:10:01.034Z,9.16
2018-11-14T00:11:00.969Z,9.19
2018-11-14T00:12:00.967Z,9.19
2018-11-14T00:13:00.959Z,9.11
2018-11-14T00:14:00.952Z,9.16
2018-11-14T00:15:00.944Z,9.13
2018-11-14T00:16:00.944Z,9.18
2018-11-14T00:17:00.930Z,9.18
2018-11-14T00:18:00.924Z,9.16
2018-11-14T00:19:00.920Z,9.18
2018-11-14T00:20:00.911Z,9.08
2018-11-14T00:21:00.907Z,9.11
2018-11-14T00:22:00.897Z,9.10
2018-11-14T00:23:00.896Z,9.03
2018-11-14T00:24:00.886Z,9.08
2018-11-14T00:25:00.878Z,9.04
2018-11-14T00:26:00.873Z,9.04
2018-11-14T00:27:00.866Z,9.08
2018-11-14T00:28:01.285Z,9.04
2018-11-14T00:29:00.853Z,9.10
2018-11-14T00:30:00.847Z,9.13
2018-11-14T00:31:00.839Z,8.94
2018-11-14T00:32:00.834Z,8.97
2018-11-14T00:33:00.869Z,8.97
2018-11-14T00:34:00.821Z,9.03
2018-11-14T00:35:00.816Z,9.00
2018-11-14T00:36:00.805Z,8.97
2018-11-14T00:37:00.801Z,9.04
2018-11-14T00:38:00.795Z,8.99
2018-11-14T00:39:00.787Z,8.94
2018-11-14T00:40:00.780Z,8.88
2018-11-14T00:41:00.774Z,8.99
2018-11-14T00:42:00.768Z,8.91
2018-11-14T00:43:00.761Z,8.95
2018-11-14T00:44:00.756Z,8.85
2018-11-14T00:45:00.749Z,8.91
2018-11-14T00:46:00.738Z,8.89
2018-11-14T00:47:00.735Z,8.81
2018-11-14T00:48:00.732Z,8.85
2018-11-14T00:49:00.722Z,8.88
2018-11-14T00:50:00.716Z,8.84
2018-11-14T00:51:00.711Z,8.70
2018-11-14T00:52:00.703Z,8.71
2018-11-14T00:53:00.697Z,8.74
2018-11-14T00:54:00.690Z,8.74
2018-11-14T00:55:00.684Z,8.76
2018-11-14T00:56:00.676Z,8.69
2018-11-14T00:57:00.669Z,8.69
2018-11-14T00:58:00.661Z,8.79
2018-11-14T00:59:00.656Z,8.76
2018-11-14T01:00:00.764Z,8.74
2018-11-14T01:01:00.652Z,8.78
2018-11-14T01:02:01.153Z,8.70
2018-11-14T01:03:00.628Z,8.73
2018-11-14T01:04:00.623Z,8.76
2018-11-14T01:05:00.616Z,8.82
2018-11-14T01:06:00.609Z,8.78
2018-11-14T01:07:00.601Z,8.76
2018-11-14T01:08:00.589Z,8.70
2018-11-14T01:09:00.594Z,8.74
2018-11-14T01:10:00.580Z,8.69
2018-11-14T01:11:00.573Z,8.71
2018-11-14T01:12:00.567Z,8.66
2018-11-14T01:13:00.624Z,8.64
2018-11-14T01:14:00.554Z,8.67
2018-11-14T01:15:00.547Z,8.64
2018-11-14T01:16:00.544Z,8.69
2018-11-14T01:17:00.535Z,8.56
2018-11-14T01:18:00.527Z,8.64
2018-11-14T01:19:00.522Z,8.66
2018-11-14T01:20:00.512Z,8.67
2018-11-14T01:21:00.504Z,8.55
2018-11-14T01:22:00.499Z,8.56
2018-11-14T01:23:00.491Z,8.63
2018-11-14T01:24:00.486Z,8.63
2018-11-14T01:25:00.477Z,8.58
2018-11-14T01:26:00.472Z,8.60
2018-11-14T01:27:00.471Z,8.60
2018-11-14T01:28:00.458Z,8.61
2018-11-14T01:29:00.455Z,8.56
2018-11-14T01:30:00.444Z,8.58
2018-11-14T01:31:00.436Z,8.64
2018-11-14T01:32:00.430Z,8.60
2018-11-14T01:33:00.424Z,8.60
2018-11-14T01:34:00.443Z,8.63
2018-11-14T01:35:00.409Z,8.61
2018-11-14T01:36:00.402Z,8.61
2018-11-14T01:37:00.395Z,8.56
2018-11-14T01:38:00.394Z,8.60
2018-11-14T01:39:00.384Z,8.60
2018-11-14T01:40:00.376Z,8.64
2018-11-14T01:41:00.425Z,8.63
2018-11-14T01:42:00.367Z,8.67
2018-11-14T01:43:00.355Z,8.66
2018-11-14T01:44:00.349Z,8.63
2018-11-14T01:45:00.342Z,8.60
2018-11-14T01:46:00.334Z,8.61
2018-11-14T01:47:00.326Z,8.60
2018-11-14T01:48:00.320Z,8.60
2018-11-14T01:49:00.312Z,8.61
2018-11-14T01:50:00.307Z,8.55
2018-11-14T01:51:00.300Z,8.56
2018-11-14T01:52:00.295Z,8.58
2018-11-14T01:53:00.286Z,8.56
2018-11-14T01:54:00.283Z,8.55
2018-11-14T01:55:00.271Z,8.56
2018-11-14T01:56:00.264Z,8.51
2018-11-14T01:57:00.260Z,8.46
2018-11-14T01:58:00.247Z,8.52
2018-11-14T01:59:00.242Z,8.53
2018-11-14T02:00:00.241Z,8.46
2018-11-14T02:01:00.232Z,8.41
2018-11-14T02:02:00.224Z,8.51
2018-11-14T02:03:00.222Z,8.52
2018-11-14T02:04:00.212Z,8.51
2018-11-14T02:05:00.203Z,8.51
2018-11-14T02:06:00.195Z,8.46
2018-11-14T02:07:00.189Z,8.36
2018-11-14T02:08:00.235Z,8.37
2018-11-14T02:09:00.173Z,8.45
2018-11-14T02:10:00.168Z,8.36
2018-11-14T02:11:00.165Z,8.34
2018-11-14T02:12:00.158Z,8.34
2018-11-14T02:13:00.147Z,8.44
2018-11-14T02:14:00.148Z,8.31
2018-11-14T02:15:00.133Z,8.31
2018-11-14T02:16:00.128Z,8.45
2018-11-14T02:17:00.121Z,8.37
2018-11-14T02:18:00.112Z,8.42
2018-11-14T02:19:00.105Z,8.31
2018-11-14T02:20:00.099Z,8.34
2018-11-14T02:21:00.091Z,8.28
2018-11-14T02:22:00.106Z,8.30
2018-11-14T02:23:00.077Z,8.24
2018-11-14T02:24:00.069Z,8.20
2018-11-14T02:25:00.066Z,8.36
2018-11-14T02:26:00.058Z,8.28
2018-11-14T02:27:00.051Z,8.18
2018-11-14T02:28:00.039Z,8.26
2018-11-14T02:29:00.036Z,8.19
2018-11-14T02:30:00.037Z,8.15
2018-11-14T02:31:00.022Z,8.23
2018-11-14T02:32:00.026Z,8.19
2018-11-14T02:33:00.008Z,8.16
2018-11-14T02:34:00.002Z,8.20
2018-11-14T02:34:59.992Z,8.15
2018-11-14T02:35:59.997Z,8.13
2018-11-14T02:36:59.982Z,8.08
2018-11-14T02:37:59.974Z,8.13
2018-11-14T02:38:59.967Z,8.23
2018-11-14T02:39:59.963Z,8.13
2018-11-14T02:40:59.951Z,8.06
2018-11-14T02:41:59.944Z,8.05
2018-11-14T02:42:59.939Z,8.06
2018-11-14T02:43:59.930Z,8.08
2018-11-14T02:44:59.924Z,8.08
2018-11-14T02:45:59.924Z,8.08
2018-11-14T02:46:59.913Z,8.10
2018-11-14T02:47:59.901Z,8.08
2018-11-14T02:48:59.895Z,8.05
2018-11-14T02:49:59.888Z,8.01
2018-11-14T02:50:59.887Z,8.06
2018-11-14T02:51:59.882Z,8.12
2018-11-14T02:52:59.865Z,8.09
2018-11-14T02:53:59.861Z,8.09
2018-11-14T02:54:59.851Z,8.10
2018-11-14T02:55:59.841Z,8.08
2018-11-14T02:56:59.835Z,8.09
2018-11-14T02:57:59.833Z,8.01
2018-11-14T02:58:59.823Z,8.03
2018-11-14T02:59:59.815Z,8.09
2018-11-14T03:00:59.808Z,8.03
2018-11-14T03:01:59.805Z,8.01
2018-11-14T03:02:59.794Z,8.05
2018-11-14T03:03:59.787Z,8.01
2018-11-14T03:04:59.784Z,7.98
2018-11-14T03:05:59.780Z,8.03
2018-11-14T03:06:59.765Z,8.00
2018-11-14T03:07:59.758Z,7.98
2018-11-14T03:08:59.749Z,7.97
2018-11-14T03:09:59.745Z,8.03
2018-11-14T03:10:59.735Z,8.01
2018-11-14T03:11:59.728Z,8.01
2018-11-14T03:12:59.726Z,8.05
2018-11-14T03:13:59.716Z,7.98
2018-11-14T03:14:59.706Z,8.05
2018-11-14T03:15:59.699Z,8.00
2018-11-14T03:16:59.692Z,7.98
2018-11-14T03:17:59.692Z,7.98
2018-11-14T03:18:59.675Z,8.01
2018-11-14T03:19:59.669Z,7.98
2018-11-14T03:20:59.671Z,7.98
2018-11-14T03:21:59.656Z,8.01
2018-11-14T03:22:59.649Z,8.05
2018-11-14T03:23:59.646Z,8.00
2018-11-14T03:24:59.632Z,8.01
2018-11-14T03:25:59.639Z,7.97
2018-11-14T03:26:59.620Z,8.00
2018-11-14T03:27:59.631Z,7.98
2018-11-14T03:28:59.606Z,7.97
2018-11-14T03:29:59.609Z,8.00
2018-11-14T03:30:59.589Z,7.94
2018-11-14T03:31:59.583Z,7.95
2018-11-14T03:32:59.578Z,7.87
2018-11-14T03:33:59.568Z,7.87
2018-11-14T03:34:59.575Z,7.76
2018-11-14T03:35:59.553Z,7.88
2018-11-14T03:36:59.546Z,7.82
2018-11-14T03:37:59.539Z,7.90
2018-11-14T03:38:59.531Z,7.88
2018-11-14T03:39:59.522Z,7.87
2018-11-14T03:40:59.510Z,7.80
2018-11-14T03:41:59.508Z,7.83
2018-11-14T03:42:59.505Z,7.85
2018-11-14T03:43:59.494Z,7.91
2018-11-14T03:44:59.488Z,7.85
2018-11-14T03:45:59.479Z,7.80
2018-11-14T03:46:59.471Z,7.88
2018-11-14T03:47:59.463Z,7.82
2018-11-14T03:48:59.464Z,7.87
2018-11-14T03:49:59.449Z,7.83
2018-11-14T03:50:59.439Z,7.72
2018-11-14T03:51:59.434Z,7.79
2018-11-14T03:52:59.426Z,7.76
2018-11-14T03:53:59.420Z,7.76
2018-11-14T03:54:59.412Z,7.75
2018-11-14T03:55:59.403Z,7.72
2018-11-14T03:56:59.400Z,7.70
2018-11-14T03:57:59.390Z,7.67
2018-11-14T03:58:59.384Z,7.67
2018-11-14T03:59:59.379Z,7.70
2018-11-14T04:00:59.365Z,7.57
2018-11-14T04:01:59.366Z,7.66
2018-11-14T04:02:59.350Z,7.51
2018-11-14T04:03:59.346Z,7.61
2018-11-14T04:04:59.340Z,7.61
2018-11-14T04:05:59.329Z,7.54
2018-11-14T04:06:59.322Z,7.56
2018-11-14T04:07:59.315Z,7.50
2018-11-14T04:08:59.306Z,7.50
2018-11-14T04:09:59.299Z,7.56
2018-11-14T04:10:59.291Z,7.54
2018-11-14T04:11:59.283Z,7.56
2018-11-14T04:12:59.276Z,7.58
2018-11-14T04:13:59.276Z,7.56
2018-11-14T04:14:59.266Z,7.53
2018-11-14T04:15:59.257Z,7.48
2018-11-14T04:16:59.248Z,7.54
2018-11-14T04:17:59.239Z,7.53
2018-11-14T04:18:59.229Z,7.56
2018-11-14T04:19:59.224Z,7.53
2018-11-14T04:20:59.215Z,7.56
2018-11-14T04:21:59.211Z,7.54
2018-11-14T04:22:59.201Z,7.50
2018-11-14T04:23:59.193Z,7.42
2018-11-14T04:24:59.186Z,7.42
2018-11-14T04:25:59.177Z,7.40
2018-11-14T04:26:59.171Z,7.35
2018-11-14T04:27:59.161Z,7.29
2018-11-14T04:28:59.161Z,7.32
2018-11-14T04:29:59.152Z,7.38
2018-11-14T04:30:59.139Z,7.43
2018-11-14T04:31:59.132Z,7.35
2018-11-14T04:32:59.123Z,7.33
2018-11-14T04:33:59.116Z,7.29
2018-11-14T04:34:59.110Z,7.24
2018-11-14T04:35:59.101Z,7.14
2018-11-14T04:36:59.096Z,7.20
2018-11-14T04:37:59.090Z,7.17
2018-11-14T04:38:59.081Z,7.25
2018-11-14T04:39:59.070Z,7.18
2018-11-14T04:40:59.062Z,7.25
2018-11-14T04:41:59.055Z,7.11
2018-11-14T04:42:59.044Z,7.17
2018-11-14T04:43:59.039Z,7.18
2018-11-14T04:44:59.035Z,7.03
2018-11-14T04:45:59.023Z,7.05
2018-11-14T04:46:59.013Z,7.11
2018-11-14T04:47:59.121Z,7.03
2018-11-14T04:48:59.000Z,7.07
2018-11-14T04:49:58.989Z,7.03
2018-11-14T04:50:58.982Z,7.06
2018-11-14T04:51:58.974Z,7.06
2018-11-14T04:52:58.964Z,7.05
2018-11-14T04:53:58.960Z,7.13
2018-11-14T04:54:58.950Z,7.10
2018-11-14T04:55:58.947Z,7.10
2018-11-14T04:56:58.933Z,7.06
2018-11-14T04:57:58.926Z,7.06
2018-11-14T04:58:58.919Z,7.06
2018-11-14T04:59:58.908Z,7.02
2018-11-14T05:00:58.903Z,6.97
2018-11-14T05:01:58.893Z,7.03
2018-11-14T05:02:58.885Z,6.92
2018-11-14T05:03:58.882Z,6.92
2018-11-14T05:04:58.871Z,6.93
2018-11-14T05:05:58.863Z,6.88
2018-11-14T05:06:58.851Z,6.92
2018-11-14T05:07:58.842Z,6.95
2018-11-14T05:08:58.840Z,6.93
2018-11-14T05:09:58.831Z,6.99
2018-11-14T05:10:58.825Z,6.89
2018-11-14T05:11:58.813Z,6.89
2018-11-14T05:12:58.841Z,6.93
2018-11-14T05:13:58.798Z,6.85
2018-11-14T05:14:58.791Z,6.88
2018-11-14T05:15:58.781Z,6.95
2018-11-14T05:16:58.776Z,6.92
2018-11-14T05:17:58.767Z,6.92
2018-11-14T05:18:58.757Z,6.92
2018-11-14T05:19:58.749Z,6.93
2018-11-14T05:20:58.741Z,6.87
2018-11-14T05:21:58.734Z,6.93
2018-11-14T05:22:58.724Z,6.88
2018-11-14T05:23:58.719Z,6.88
2018-11-14T05:24:58.707Z,6.88
2018-11-14T05:25:58.701Z,6.87
2018-11-14T05:26:58.693Z,6.81
2018-11-14T05:27:58.682Z,6.89
2018-11-14T05:28:58.678Z,6.78
2018-11-14T05:29:58.669Z,6.84
2018-11-14T05:30:58.659Z,6.85
2018-11-14T05:31:58.751Z,6.84
2018-11-14T05:32:58.645Z,6.84
2018-11-14T05:33:58.638Z,6.87
2018-11-14T05:34:58.627Z,6.84
2018-11-14T05:35:58.616Z,6.89
2018-11-14T05:36:58.610Z,6.82
2018-11-14T05:37:58.604Z,6.77
2018-11-14T05:38:58.595Z,6.85
2018-11-14T05:39:58.637Z,6.84
2018-11-14T05:40:58.573Z,6.84
2018-11-14T05:41:58.571Z,6.89
2018-11-14T05:42:58.561Z,6.87
2018-11-14T05:43:58.555Z,6.87
2018-11-14T05:44:58.545Z,6.87
2018-11-14T05:45:58.539Z,6.84
2018-11-14T05:46:58.528Z,6.84
2018-11-14T05:47:58.527Z,6.89
2018-11-14T05:48:58.514Z,6.81
2018-11-14T05:49:58.503Z,6.81
2018-11-14T05:50:58.496Z,6.88
2018-11-14T05:51:58.496Z,6.88
2018-11-14T05:53:07.114Z,6.89
2018-11-14T05:54:53.026Z,6.82
2018-11-14T05:55:52.830Z,6.87
2018-11-14T05:57:47.183Z,6.85
2018-11-14T05:58:47.169Z,6.92
2018-11-14T06:00:41.553Z,6.87
2018-11-14T06:01:41.544Z,6.85
2018-11-14T06:03:35.911Z,6.79
2018-11-14T06:04:35.897Z,6.78
2018-11-14T06:06:30.259Z,6.77
2018-11-14T06:07:30.274Z,6.77
2018-11-14T06:09:24.631Z,6.78
2018-11-14T06:10:24.604Z,6.87
2018-11-14T06:12:21.178Z,6.79
2018-11-14T06:13:18.956Z,6.79
2018-11-14T06:15:13.318Z,6.82
2018-11-14T06:16:13.299Z,6.74
2018-11-14T06:18:07.737Z,6.82
2018-11-14T06:19:07.658Z,6.82
2018-11-14T06:21:02.030Z,6.84
2018-11-14T06:22:02.132Z,6.82
2018-11-14T06:23:56.386Z,6.77
2018-11-14T06:24:56.384Z,6.87
2018-11-14T06:26:50.728Z,6.72
2018-11-14T06:27:50.717Z,6.67
2018-11-14T06:29:45.718Z,6.78
2018-11-14T06:30:45.071Z,6.75
2018-11-14T06:32:39.429Z,6.62
2018-11-14T06:33:39.421Z,6.67
2018-11-14T06:35:33.894Z,6.66
2018-11-14T06:36:33.776Z,6.70
2018-11-14T06:38:28.144Z,6.69
2018-11-14T06:39:28.128Z,6.75
2018-11-14T06:41:22.731Z,6.72
2018-11-14T06:42:22.479Z,6.75
2018-11-14T06:44:16.844Z,6.70
2018-11-14T06:45:16.829Z,6.77
2018-11-14T06:47:11.195Z,6.84
2018-11-14T06:48:11.185Z,6.88
2018-11-14T06:50:05.631Z,6.87
2018-11-14T06:51:05.532Z,6.89
2018-11-14T06:53:00.055Z,7.00
2018-11-14T06:53:59.894Z,6.95
2018-11-14T06:55:54.268Z,6.99
2018-11-14T06:56:54.261Z,7.00
2018-11-14T06:58:48.715Z,6.96
2018-11-14T06:59:48.694Z,7.00
2018-11-14T07:01:42.969Z,6.88
2018-11-14T07:02:45.123Z,6.93
2018-11-14T07:04:37.317Z,6.96
2018-11-14T07:05:37.386Z,7.00
2018-11-14T07:07:31.679Z,7.05
2018-11-14T07:08:31.655Z,7.06
2018-11-14T07:10:26.950Z,7.14
2018-11-14T07:11:26.030Z,7.13
2018-11-14T07:13:20.436Z,7.15
2018-11-14T07:14:20.421Z,7.18
2018-11-14T07:16:14.779Z,7.03
2018-11-14T07:17:14.776Z,6.99
2018-11-14T07:19:09.131Z,7.03
2018-11-14T07:20:09.120Z,7.03
2018-11-14T07:22:03.484Z,7.02
2018-11-14T07:23:03.474Z,7.05
2018-11-14T07:24:57.884Z,6.97
2018-11-14T07:25:57.830Z,7.00
2018-11-14T07:27:53.298Z,7.05
2018-11-14T07:28:52.177Z,7.13
2018-11-14T07:30:46.542Z,7.03
2018-11-14T07:31:46.540Z,7.05
2018-11-14T07:33:40.994Z,7.06
2018-11-14T07:34:40.885Z,7.15
2018-11-14T07:36:35.252Z,7.17
2018-11-14T07:37:35.279Z,7.06
2018-11-14T07:39:29.602Z,7.13
2018-11-14T07:40:29.676Z,7.05
2018-11-14T07:42:23.965Z,6.92
2018-11-14T07:43:24.006Z,6.96
2018-11-14T07:45:18.493Z,6.93
2018-11-14T07:46:18.295Z,6.93
2018-11-14T07:48:12.676Z,6.95
2018-11-14T07:49:12.743Z,7.03
2018-11-14T07:51:07.002Z,7.07
2018-11-14T07:52:06.992Z,7.06
2018-11-14T07:54:01.371Z,7.02
2018-11-14T07:55:01.391Z,7.13
2018-11-14T07:56:55.719Z,7.18
2018-11-14T07:57:55.711Z,7.23
2018-11-14T07:59:50.060Z,7.24
2018-11-14T08:00:50.052Z,7.18
2018-11-14T08:02:44.573Z,7.28
2018-11-14T08:03:44.404Z,7.31
2018-11-14T08:05:38.769Z,7.24
2018-11-14T08:06:38.761Z,7.35
2018-11-14T08:08:33.211Z,7.35
2018-11-14T08:09:33.100Z,7.36
2018-11-14T08:11:27.474Z,7.33
2018-11-14T08:12:27.454Z,7.36
2018-11-14T08:14:21.810Z,7.42
2018-11-14T08:15:21.798Z,7.40
2018-11-14T08:17:16.166Z,7.51
2018-11-14T08:18:16.156Z,7.51
2018-11-14T08:20:11.636Z,7.43
2018-11-14T08:21:10.529Z,7.48
2018-11-14T08:23:04.893Z,7.51
2018-11-14T08:24:04.886Z,7.56
2018-11-14T08:25:59.250Z,7.61
2018-11-14T08:26:59.240Z,7.54
2018-11-14T08:28:53.605Z,7.63
2018-11-14T08:29:53.593Z,7.73
2018-11-14T08:31:47.958Z,7.76
2018-11-14T08:32:47.968Z,7.79
2018-11-14T08:34:42.312Z,7.80
2018-11-14T08:35:42.297Z,7.95
2018-11-14T08:37:36.866Z,7.95
2018-11-14T08:38:36.657Z,7.91
2018-11-14T08:40:31.592Z,7.97
2018-11-14T08:41:31.002Z,8.01
2018-11-14T08:43:25.414Z,7.98
2018-11-14T08:44:25.354Z,8.00
2018-11-14T08:46:19.732Z,8.00
2018-11-14T08:47:19.712Z,8.01
2018-11-14T08:49:14.150Z,8.05
2018-11-14T08:50:14.113Z,8.06
2018-11-14T08:52:08.443Z,8.12
2018-11-14T08:53:08.420Z,8.10
2018-11-14T08:55:04.973Z,8.09
2018-11-14T08:56:03.929Z,8.06
2018-11-14T08:57:58.315Z,8.12
2018-11-14T08:58:57.155Z,8.00
2018-11-14T09:00:51.594Z,8.03
2018-11-14T09:01:51.919Z,8.01
2018-11-14T09:03:46.077Z,7.98
2018-11-14T09:04:45.837Z,8.03
2018-11-14T09:06:41.831Z,7.95
2018-11-14T09:07:40.312Z,7.98
2018-11-14T09:09:34.960Z,8.05
2018-11-14T09:10:35.073Z,8.06
2018-11-14T09:12:29.182Z,8.05
2018-11-14T09:13:28.948Z,8.05
2018-11-14T09:15:23.317Z,8.10
2018-11-14T09:16:23.273Z,8.19
2018-11-14T09:18:17.796Z,8.23
2018-11-14T09:19:17.634Z,8.15
2018-11-14T09:21:12.225Z,8.24
2018-11-14T09:22:12.079Z,8.23
2018-11-14T09:24:07.411Z,8.26
2018-11-14T09:25:07.206Z,8.34
2018-11-14T09:27:00.798Z,8.36
2018-11-14T09:28:01.821Z,8.34
2018-11-14T09:29:58.203Z,8.42
2018-11-14T09:30:56.526Z,8.55
2018-11-14T09:32:50.359Z,8.48
2018-11-14T09:33:50.563Z,8.53
2018-11-14T09:35:45.205Z,8.56
2018-11-14T09:36:45.299Z,8.70
2018-11-14T09:38:42.356Z,8.73
2018-11-14T09:39:42.244Z,8.74
2018-11-14T09:40:42.735Z,8.82
2018-11-14T09:41:42.132Z,8.85
2018-11-14T09:42:42.860Z,8.89
2018-11-14T09:43:42.063Z,8.89
2018-11-14T09:44:42.897Z,8.99
2018-11-14T09:45:42.024Z,9.00
2018-11-14T09:46:42.290Z,8.97
2018-11-14T09:47:42.105Z,9.06
2018-11-14T09:48:42.215Z,9.10
2018-11-14T09:49:42.742Z,9.04
2018-11-14T09:50:41.931Z,9.10
2018-11-14T09:51:41.916Z,9.18
2018-11-14T09:52:42.114Z,9.18
2018-11-14T09:53:42.787Z,9.23
2018-11-14T09:54:41.841Z,9.21
2018-11-14T09:55:42.180Z,9.16
2018-11-14T09:56:42.116Z,9.23
2018-11-14T09:57:42.702Z,9.29
2018-11-14T09:58:42.826Z,9.40
2018-11-14T09:59:42.159Z,9.43
2018-11-14T10:00:42.858Z,9.40
2018-11-14T10:01:42.711Z,9.40
2018-11-14T10:02:41.902Z,9.50
2018-11-14T10:03:42.726Z,9.43
2018-11-14T10:04:41.987Z,9.50
2018-11-14T10:05:41.933Z,9.56
2018-11-14T10:06:42.662Z,9.61
2018-11-14T10:07:42.761Z,9.62
2018-11-14T10:08:42.751Z,9.69
2018-11-14T10:09:42.729Z,9.76
2018-11-14T10:10:42.717Z,9.69
2018-11-14T10:11:42.791Z,9.83
2018-11-14T10:12:41.911Z,9.83
2018-11-14T10:13:41.920Z,9.83
2018-11-14T10:14:41.908Z,9.86
2018-11-14T10:15:41.959Z,9.84
2018-11-14T10:16:42.009Z,9.84
2018-11-14T10:17:43.129Z,9.95
2018-11-14T10:18:41.848Z,9.95
2018-11-14T10:19:41.684Z,9.98
2018-11-14T10:20:41.683Z,9.95
2018-11-14T10:21:41.685Z,9.99
2018-11-14T10:22:41.659Z,9.95
2018-11-14T10:23:41.648Z,10.05
2018-11-14T10:24:41.654Z,10.02
2018-11-14T10:25:41.634Z,10.05
2018-11-14T10:26:41.635Z,10.13
2018-11-14T10:27:41.622Z,10.07
2018-11-14T10:28:41.722Z,10.20
2018-11-14T10:29:41.608Z,10.15
2018-11-14T10:30:41.609Z,10.31
2018-11-14T10:31:41.716Z,10.22
2018-11-14T10:32:41.600Z,10.30
2018-11-14T10:33:41.582Z,10.31
2018-11-14T10:34:41.978Z,10.31
2018-11-14T10:35:41.590Z,10.37
2018-11-14T10:36:41.566Z,10.40
2018-11-14T10:37:41.560Z,10.44
2018-11-14T10:38:41.554Z,10.44
2018-11-14T10:39:41.931Z,10.53
2018-11-14T10:40:41.545Z,10.54
2018-11-14T10:41:41.550Z,10.53
2018-11-14T10:42:41.567Z,10.48
2018-11-14T10:43:41.524Z,10.48
2018-11-14T10:44:41.517Z,10.56
2018-11-14T10:45:41.511Z,10.59
2018-11-14T10:46:41.505Z,10.67
2018-11-14T10:47:41.503Z,10.69
2018-11-14T10:48:41.504Z,10.67
2018-11-14T10:49:41.492Z,10.79
2018-11-14T10:50:41.509Z,10.71
2018-11-14T10:51:41.470Z,10.74
2018-11-14T10:52:41.461Z,10.79
2018-11-14T10:53:41.458Z,10.86
2018-11-14T10:54:41.458Z,10.86
2018-11-14T10:55:41.455Z,10.92
2018-11-14T10:56:41.669Z,10.84
2018-11-14T10:57:41.432Z,10.99
2018-11-14T10:58:41.430Z,10.96
2018-11-14T10:59:41.427Z,11.00
2018-11-14T11:00:41.419Z,11.12
2018-11-14T11:01:41.413Z,11.14
2018-11-14T11:02:41.415Z,11.11
2018-11-14T11:03:42.237Z,11.08
2018-11-14T11:04:41.550Z,11.19
2018-11-14T11:05:41.506Z,11.19
2018-11-14T11:06:41.428Z,11.23
2018-11-14T11:07:41.380Z,11.30
2018-11-14T11:08:41.440Z,11.22
2018-11-14T11:09:41.536Z,11.30
2018-11-14T11:10:41.362Z,11.37
2018-11-14T11:11:41.356Z,11.41
2018-11-14T11:12:41.484Z,11.47
2018-11-14T11:13:41.495Z,11.44
2018-11-14T11:14:42.242Z,11.50
2018-11-14T11:15:41.336Z,11.55
2018-11-14T11:16:41.333Z,11.65
2018-11-14T11:17:42.241Z,11.60
2018-11-14T11:18:41.348Z,11.65
2018-11-14T11:19:41.308Z,11.66
2018-11-14T11:20:41.305Z,11.66
2018-11-14T11:21:42.211Z,11.77
2018-11-14T11:22:41.534Z,11.77
2018-11-14T11:23:41.413Z,11.81
2018-11-14T11:24:41.300Z,11.91
2018-11-14T11:25:41.278Z,11.95
2018-11-14T11:26:41.274Z,11.88
2018-11-14T11:27:41.269Z,12.02
2018-11-14T11:28:41.271Z,12.06
2018-11-14T11:29:41.254Z,12.12
2018-11-14T11:30:41.283Z,12.18
2018-11-14T11:31:41.246Z,12.21
2018-11-14T11:32:41.244Z,12.37
2018-11-14T11:33:41.239Z,12.39
2018-11-14T11:34:41.263Z,12.35
2018-11-14T11:35:41.230Z,12.49
2018-11-14T11:36:41.228Z,12.47
2018-11-14T11:37:41.218Z,12.46
2018-11-14T11:38:41.217Z,12.49
2018-11-14T11:39:41.279Z,12.47
2018-11-14T11:40:41.214Z,12.49
2018-11-14T11:41:41.203Z,12.43
2018-11-14T11:42:41.199Z,12.49
2018-11-14T11:43:41.190Z,12.50
2018-11-14T11:44:41.189Z,12.54
2018-11-14T11:45:41.699Z,12.53
2018-11-14T11:46:41.175Z,12.49
2018-11-14T11:47:41.171Z,12.53
2018-11-14T11:48:41.172Z,12.50
2018-11-14T11:49:41.195Z,12.50
2018-11-14T11:50:41.158Z,12.57
2018-11-14T11:51:41.150Z,12.61
2018-11-14T11:52:41.145Z,12.70
2018-11-14T11:53:41.143Z,12.68
2018-11-14T11:54:41.136Z,12.79
2018-11-14T11:55:41.260Z,12.80
2018-11-14T11:56:41.130Z,12.86
2018-11-14T11:57:41.139Z,12.82
2018-11-14T11:58:41.242Z,12.73
2018-11-14T11:59:41.178Z,12.85
2018-11-14T12:00:41.292Z,12.79
2018-11-14T12:01:41.109Z,12.86
2018-11-14T12:02:41.159Z,12.85
2018-11-14T12:03:41.217Z,12.93
2018-11-14T12:04:41.107Z,12.97
2018-11-14T12:05:41.137Z,13.09
2018-11-14T12:06:41.083Z,13.09
2018-11-14T12:07:41.078Z,13.04
2018-11-14T12:08:41.310Z,13.19
2018-11-14T12:09:41.422Z,13.20
2018-11-14T12:10:41.767Z,13.20
2018-11-14T12:11:41.061Z,13.27
2018-11-14T12:12:41.054Z,13.22
2018-11-14T12:13:41.136Z,13.41
2018-11-14T12:14:41.047Z,13.41
2018-11-14T12:15:41.040Z,13.35
2018-11-14T12:16:41.041Z,13.33
2018-11-14T12:17:41.098Z,13.35
2018-11-14T12:18:41.030Z,13.38
2018-11-14T12:19:41.031Z,13.35
2018-11-14T12:20:41.020Z,13.42
2018-11-14T12:21:41.017Z,13.38
2018-11-14T12:22:41.750Z,13.38
2018-11-14T12:23:41.068Z,13.41
2018-11-14T12:24:41.141Z,13.37
2018-11-14T12:25:40.999Z,13.38
2018-11-14T12:26:40.995Z,13.35
2018-11-14T12:27:41.137Z,13.39
2018-11-14T12:28:41.002Z,13.33
2018-11-14T12:29:41.008Z,13.33
2018-11-14T12:30:41.106Z,13.39
2018-11-14T12:31:40.974Z,13.38
2018-11-14T12:32:41.056Z,13.42
2018-11-14T12:33:41.185Z,13.52
2018-11-14T12:34:41.028Z,13.35
2018-11-14T12:35:42.073Z,13.47
2018-11-14T12:36:41.184Z,13.49
2018-11-14T12:37:40.949Z,13.38
2018-11-14T12:38:40.972Z,13.47
2018-11-14T12:39:40.941Z,13.49
2018-11-14T12:40:41.025Z,13.50
2018-11-14T12:41:40.997Z,13.46
2018-11-14T12:42:40.929Z,13.56
2018-11-14T12:43:40.938Z,13.52
2018-11-14T12:44:40.920Z,13.50
2018-11-14T12:45:40.920Z,13.57
2018-11-14T12:46:41.361Z,13.60
2018-11-14T12:47:41.032Z,13.65
2018-11-14T12:48:40.906Z,13.63
2018-11-14T12:49:40.927Z,13.63
2018-11-14T12:50:41.045Z,13.67
2018-11-14T12:51:41.001Z,13.74
2018-11-14T12:52:40.995Z,13.71
2018-11-14T12:53:40.890Z,13.65
2018-11-14T12:54:40.878Z,13.70
2018-11-14T12:55:41.101Z,13.68
2018-11-14T12:56:40.874Z,13.70
2018-11-14T12:57:40.880Z,13.70
2018-11-14T12:58:40.873Z,13.62
2018-11-14T12:59:40.912Z,13.65
2018-11-14T13:00:40.861Z,13.72
2018-11-14T13:01:40.854Z,13.63
2018-11-14T13:02:40.851Z,13.67
2018-11-14T13:03:40.857Z,13.62
2018-11-14T13:04:40.863Z,13.68
2018-11-14T13:05:40.842Z,13.72
2018-11-14T13:06:40.836Z,13.74
2018-11-14T13:07:40.831Z,13.70
2018-11-14T13:08:40.828Z,13.71
2018-11-14T13:09:40.825Z,13.68
2018-11-14T13:10:40.826Z,13.70
2018-11-14T13:11:40.820Z,13.70
2018-11-14T13:12:40.813Z,13.72
2018-11-14T13:13:40.809Z,13.71
2018-11-14T13:14:40.826Z,13.74
2018-11-14T13:15:40.803Z,13.74
2018-11-14T13:16:40.804Z,13.72
2018-11-14T13:17:41.208Z,13.78
2018-11-14T13:18:40.793Z,13.71
2018-11-14T13:19:40.785Z,13.70
2018-11-14T13:20:40.782Z,13.70
2018-11-14T13:21:40.780Z,13.71
2018-11-14T13:22:40.779Z,13.78
2018-11-14T13:23:40.776Z,13.72
2018-11-14T13:24:40.780Z,13.77
2018-11-14T13:25:40.868Z,13.81
2018-11-14T13:26:40.761Z,13.75
2018-11-14T13:27:40.758Z,13.75
2018-11-14T13:28:40.802Z,13.83
2018-11-14T13:29:41.120Z,13.85
2018-11-14T13:30:40.760Z,13.87
2018-11-14T13:31:40.745Z,13.81
2018-11-14T13:32:40.741Z,13.89
2018-11-14T13:33:40.782Z,13.86
2018-11-14T13:34:40.816Z,13.86
2018-11-14T13:35:40.734Z,13.92
2018-11-14T13:36:40.736Z,13.95
2018-11-14T13:37:40.724Z,14.00
2018-11-14T13:38:40.723Z,13.93
2018-11-14T13:39:40.713Z,14.05
2018-11-14T13:40:40.723Z,13.97
2018-11-14T13:41:40.711Z,14.03
2018-11-14T13:42:40.716Z,14.04
2018-11-14T13:43:40.766Z,14.00
2018-11-14T13:44:41.707Z,14.05
2018-11-14T13:45:40.743Z,13.99
2018-11-14T13:46:41.861Z,14.05
2018-11-14T13:47:40.817Z,14.07
2018-11-14T13:48:40.706Z,14.10
2018-11-14T13:49:41.887Z,14.10
2018-11-14T13:50:41.064Z,14.17
2018-11-14T13:51:41.260Z,14.23
2018-11-14T13:52:40.768Z,14.20
2018-11-14T13:53:40.843Z,14.28
2018-11-14T13:54:40.665Z,14.26
2018-11-14T13:55:40.672Z,14.37
2018-11-14T13:56:40.660Z,14.37
2018-11-14T13:57:40.672Z,14.40
2018-11-14T13:58:40.652Z,14.45
2018-11-14T13:59:40.650Z,14.48
2018-11-14T14:00:40.645Z,14.47
2018-11-14T14:01:40.657Z,14.48
2018-11-14T14:02:40.641Z,14.54
2018-11-14T14:03:40.636Z,14.45
2018-11-14T14:04:40.770Z,14.55
2018-11-14T14:05:40.632Z,14.50
2018-11-14T14:06:40.674Z,14.54
2018-11-14T14:07:40.624Z,14.59
2018-11-14T14:08:40.863Z,14.53
2018-11-14T14:09:40.620Z,14.55
2018-11-14T14:10:40.615Z,14.58
2018-11-14T14:11:40.611Z,14.55
2018-11-14T14:12:40.610Z,14.63
2018-11-14T14:13:40.611Z,14.59
2018-11-14T14:14:40.605Z,14.63
2018-11-14T14:15:40.621Z,14.59
2018-11-14T14:16:40.626Z,14.59
2018-11-14T14:17:40.598Z,14.69
2018-11-14T14:18:40.603Z,14.59
2018-11-14T14:19:40.631Z,14.62
2018-11-14T14:20:40.591Z,14.63